createdAt,value
2019-04-25T00:02:21.308Z,42.00
2019-04-25T00:06:57.179Z,42.20
2019-04-25T00:11:32.957Z,42.50
2019-04-25T00:16:09.239Z,41.80
2019-04-25T00:20:49.733Z,42.60
2019-04-25T00:25:52.796Z,42.20
2019-04-25T00:30:31.225Z,41.80
2019-04-25T00:35:07.388Z,42.70
2019-04-25T00:39:45.069Z,42.30
2019-04-25T00:44:21.938Z,40.90
2019-04-25T00:48:58.052Z,40.00
2019-04-25T00:53:33.818Z,40.50
2019-04-25T00:58:15.578Z,41.10
2019-04-25T01:02:54.395Z,41.40
2019-04-25T01:07:30.178Z,42.20
2019-04-25T01:12:06.829Z,43.20
2019-04-25T01:16:42.620Z,43.10
2019-04-25T01:21:18.384Z,42.50
2019-04-25T01:25:54.650Z,42.60
2019-04-25T01:30:30.906Z,41.50
2019-04-25T01:35:29.353Z,40.40
2019-04-25T01:40:23.590Z,40.20
2019-04-25T01:45:00.305Z,39.50
2019-04-25T01:49:36.097Z,39.60
2019-04-25T01:54:11.893Z,39.10
2019-04-25T01:58:47.661Z,38.70
2019-04-25T02:03:27.099Z,38.20
2019-04-25T02:08:01.684Z,38.00
2019-04-25T02:12:43.591Z,37.50
2019-04-25T02:17:20.152Z,38.30
2019-04-25T02:21:56.517Z,38.30
2019-04-25T02:26:33.972Z,38.80
2019-04-25T02:31:09.942Z,39.30
2019-04-25T02:35:46.734Z,40.00
2019-04-25T02:40:23.974Z,39.50
2019-04-25T02:45:16.271Z,39.50
2019-04-25T02:50:09.192Z,40.80
2019-04-25T02:54:45.394Z,42.10
2019-04-25T02:59:21.242Z,41.40
2019-04-25T03:03:59.334Z,41.20
2019-04-25T03:08:36.034Z,42.20
2019-04-25T03:13:14.505Z,42.30
2019-04-25T03:17:49.597Z,40.90
2019-04-25T03:22:28.170Z,40.80
2019-04-25T03:27:05.195Z,40.50
2019-04-25T03:31:44.731Z,39.70
2019-04-25T03:36:19.368Z,39.60
2019-04-25T03:40:55.172Z,39.60
2019-04-25T03:45:30.945Z,39.60
2019-04-25T03:50:08.169Z,39.90
2019-04-25T03:54:44.973Z,39.90
2019-04-25T03:59:20.737Z,39.70
2019-04-25T04:03:56.521Z,38.70
2019-04-25T04:08:32.272Z,39.30
2019-04-25T04:13:08.500Z,39.50
2019-04-25T04:17:49.728Z,39.30
2019-04-25T04:22:32.221Z,39.40
2019-04-25T04:27:18.804Z,39.70
2019-04-25T04:31:54.852Z,40.10
2019-04-25T04:36:30.621Z,40.10
2019-04-25T04:41:07.956Z,40.60
2019-04-25T04:45:45.621Z,41.30
2019-04-25T04:50:23.257Z,39.40
2019-04-25T04:55:06.462Z,41.90
2019-04-25T04:59:36.707Z,42.60
2019-04-25T05:04:19.109Z,40.40
2019-04-25T05:09:06.077Z,41.20
2019-04-25T05:13:41.857Z,41.90
2019-04-25T05:18:31.550Z,40.60
2019-04-25T05:22:56.592Z,41.20
2019-04-25T05:27:39.195Z,39.70
2019-04-25T05:32:08.180Z,39.10
2019-04-25T05:36:43.956Z,38.10
2019-04-25T05:41:41.056Z,39.20
2019-04-25T05:46:16.905Z,39.70
2019-04-25T05:50:53.768Z,40.00
2019-04-25T05:55:29.793Z,39.70
2019-04-25T06:00:07.267Z,40.40
2019-04-25T06:04:43.595Z,40.40
2019-04-25T06:09:38.540Z,39.90
2019-04-25T06:14:15.943Z,39.70
2019-04-25T06:18:58.356Z,40.20
2019-04-25T06:23:54.454Z,39.90
2019-04-25T06:28:34.547Z,39.90
2019-04-25T06:33:09.784Z,39.80
2019-04-25T06:37:45.544Z,39.70
2019-04-25T06:42:21.398Z,39.40
2019-04-25T06:47:10.853Z,39.60
2019-04-25T06:51:50.798Z,39.30
2019-04-25T06:56:27.450Z,39.40
2019-04-25T07:01:03.518Z,39.10
2019-04-25T07:05:40.423Z,38.60
2019-04-25T07:10:17.009Z,38.10
2019-04-25T07:14:53.926Z,38.60
2019-04-25T07:19:30.007Z,38.00
2019-04-25T07:24:06.403Z,37.60
2019-04-25T07:28:54.074Z,37.40
2019-04-25T07:33:47.871Z,38.00
2019-04-25T07:38:23.820Z,37.00
2019-04-25T07:43:00.868Z,37.20
2019-04-25T07:47:37.647Z,36.70
2019-04-25T07:52:14.041Z,36.50
2019-04-25T07:56:49.860Z,35.90
2019-04-25T08:01:25.629Z,35.30
2019-04-25T08:06:03.071Z,34.70
2019-04-25T08:11:10.861Z,34.70
2019-04-25T08:15:53.737Z,33.80
2019-04-25T08:20:31.238Z,34.10
2019-04-25T08:25:08.756Z,33.50
2019-04-25T08:29:45.531Z,32.90
2019-04-25T08:34:22.067Z,33.30
2019-04-25T08:38:58.365Z,32.10
2019-04-25T08:43:37.786Z,32.30
2019-04-25T08:48:13.623Z,32.20
2019-04-25T08:52:49.720Z,32.80
2019-04-25T08:57:44.456Z,32.40
2019-04-25T09:02:38.531Z,33.00
2019-04-25T09:07:14.232Z,33.00
2019-04-25T09:11:49.998Z,31.80
2019-04-25T09:16:27.590Z,32.10
2019-04-25T09:21:03.971Z,33.20
2019-04-25T09:25:40.686Z,32.30
2019-04-25T09:30:17.128Z,32.50
2019-04-25T09:34:54.399Z,33.80
2019-04-25T09:39:47.748Z,33.60
2019-04-25T09:44:28.358Z,34.00
2019-04-25T09:49:33.892Z,32.60
2019-04-25T09:54:44.872Z,32.50
2019-04-25T09:59:27.948Z,32.80
2019-04-25T10:04:00.874Z,34.00
2019-04-25T10:08:37.005Z,33.60
2019-04-25T10:13:13.093Z,32.00
2019-04-25T10:17:48.877Z,31.60
2019-04-25T10:22:26.153Z,31.60
2019-04-25T10:27:03.628Z,31.80
2019-04-25T10:31:39.857Z,32.20
2019-04-25T10:36:17.059Z,31.40
2019-04-25T10:40:53.660Z,32.00
2019-04-25T10:45:29.685Z,32.70
2019-04-25T10:50:06.097Z,32.70
2019-04-25T10:54:41.892Z,32.60
2019-04-25T10:59:17.688Z,32.90
2019-04-25T11:04:07.378Z,33.20
2019-04-25T11:08:43.188Z,33.70
2019-04-25T11:13:19.138Z,33.30
2019-04-25T11:17:55.117Z,34.70
2019-04-25T11:22:31.185Z,34.50
2019-04-25T11:27:07.275Z,34.00
2019-04-25T11:31:47.334Z,35.20
2019-04-25T11:36:25.028Z,35.10
2019-04-25T11:41:07.989Z,34.40
2019-04-25T11:45:45.901Z,35.20
2019-04-25T11:50:21.917Z,34.60
2019-04-25T11:54:57.741Z,34.90
2019-04-25T11:59:34.132Z,34.60
2019-04-25T12:04:13.157Z,35.20
2019-04-25T12:08:49.241Z,34.50
2019-04-25T12:13:25.086Z,34.90
2019-04-25T12:18:00.849Z,34.80
2019-04-25T12:22:36.642Z,35.40
2019-04-25T12:27:12.430Z,34.20
2019-04-25T12:31:49.205Z,34.80
2019-04-25T12:36:25.382Z,34.10
2019-04-25T12:41:01.166Z,33.70
2019-04-25T12:46:02.154Z,32.80
2019-04-25T12:50:37.955Z,34.20
2019-04-25T12:55:14.241Z,33.00
2019-04-25T12:59:50.093Z,33.30
2019-04-25T13:04:25.885Z,33.10
2019-04-25T13:09:01.681Z,33.30
2019-04-25T13:13:37.441Z,33.80
2019-04-25T13:18:13.238Z,34.50
2019-04-25T13:22:49.022Z,34.30
2019-04-25T13:27:34.166Z,34.20
2019-04-25T13:32:20.553Z,33.20
2019-04-25T13:36:56.438Z,33.50
2019-04-25T13:41:32.493Z,34.50
2019-04-25T13:46:08.321Z,34.20
2019-04-25T13:50:44.418Z,34.80
2019-04-25T13:55:21.316Z,35.40
2019-04-25T13:59:57.142Z,35.00
2019-04-25T14:04:35.438Z,34.40
2019-04-25T14:09:15.584Z,33.80
2019-04-25T14:13:51.365Z,34.80
2019-04-25T14:18:41.253Z,35.40
2019-04-25T14:23:17.339Z,35.00
2019-04-25T14:27:54.490Z,36.00
2019-04-25T14:32:30.373Z,34.20
2019-04-25T14:37:06.433Z,36.00
2019-04-25T14:41:42.240Z,35.90
2019-04-25T14:46:21.014Z,36.20
2019-04-25T14:50:56.865Z,36.20
2019-04-25T14:56:03.968Z,35.80
2019-04-25T15:00:42.390Z,35.50
2019-04-25T15:05:18.179Z,35.90
2019-04-25T15:09:54.778Z,36.60
2019-04-25T15:14:31.409Z,35.50
2019-04-25T15:19:07.889Z,35.80
2019-04-25T15:23:43.677Z,35.20
2019-04-25T15:28:19.461Z,35.10
2019-04-25T15:32:55.524Z,35.70
2019-04-25T15:37:43.033Z,35.00
2019-04-25T15:42:43.784Z,34.80
2019-04-25T15:47:23.398Z,35.30
2019-04-25T15:51:59.164Z,35.40
2019-04-25T15:56:34.964Z,35.90
2019-04-25T16:01:11.089Z,36.40
2019-04-25T16:05:46.904Z,35.80
2019-04-25T16:10:22.694Z,36.00
2019-04-25T16:14:58.462Z,36.30
2019-04-25T16:19:35.232Z,36.10
2019-04-25T16:24:12.139Z,36.20
2019-04-25T16:28:47.976Z,36.50
2019-04-25T16:33:23.737Z,36.40
2019-04-25T16:37:57.441Z,36.50
2019-04-25T16:42:33.786Z,36.40
2019-04-25T16:47:10.161Z,36.70
2019-04-25T16:51:46.330Z,36.50
2019-04-25T16:56:22.125Z,37.00
2019-04-25T17:01:16.855Z,37.40
2019-04-25T17:05:52.648Z,37.10
2019-04-25T17:10:28.440Z,37.20
2019-04-25T17:15:16.645Z,37.00
2019-04-25T17:20:11.450Z,37.00
2019-04-25T17:24:47.315Z,37.40
2019-04-25T17:29:23.294Z,36.90
2019-04-25T17:34:20.808Z,37.60
2019-04-25T17:38:59.769Z,36.60
2019-04-25T17:43:36.353Z,36.70
2019-04-25T17:48:13.966Z,37.00
2019-04-25T17:52:49.749Z,37.00
2019-04-25T17:57:25.514Z,37.00
2019-04-25T18:02:01.346Z,36.80
2019-04-25T18:06:37.682Z,36.70
2019-04-25T18:11:14.843Z,36.50
2019-04-25T18:16:11.927Z,37.00
2019-04-25T18:20:49.463Z,37.00
2019-04-25T18:25:52.282Z,37.10
2019-04-25T18:30:32.389Z,37.80
2019-04-25T18:35:25.689Z,37.60
2019-04-25T18:40:07.633Z,38.60
2019-04-25T18:44:46.185Z,39.00
2019-04-25T18:49:25.579Z,39.30
2019-04-25T18:54:12.919Z,39.20
2019-04-25T18:59:19.260Z,38.20
2019-04-25T19:04:14.664Z,37.50
2019-04-25T19:08:53.551Z,37.70
2019-04-25T19:13:31.400Z,37.70
2019-04-25T19:18:08.765Z,37.50
2019-04-25T19:22:46.448Z,37.70
2019-04-25T19:27:24.339Z,38.40
2019-04-25T19:32:01.914Z,38.10
2019-04-25T19:36:40.397Z,38.90
2019-04-25T19:41:27.430Z,39.30
2019-04-25T19:46:05.410Z,38.80
2019-04-25T19:50:42.971Z,38.80
2019-04-25T19:55:20.050Z,39.20
2019-04-25T19:59:57.129Z,38.40
2019-04-25T20:04:49.035Z,38.50
2019-04-25T20:09:53.126Z,39.20
2019-04-25T20:14:31.717Z,39.40
2019-04-25T20:19:09.987Z,40.30
2019-04-25T20:23:47.957Z,39.40
2019-04-25T20:28:26.344Z,40.20
2019-04-25T20:33:04.119Z,39.60
2019-04-25T20:37:41.942Z,39.60
2019-04-25T20:42:19.796Z,40.10
2019-04-25T20:46:55.642Z,39.90
2019-04-25T20:51:31.425Z,39.70
2019-04-25T20:56:07.508Z,40.60
2019-04-25T21:00:47.137Z,39.50
2019-04-25T21:05:24.113Z,39.90
2019-04-25T21:10:00.181Z,39.20
2019-04-25T21:14:54.933Z,39.30
2019-04-25T21:19:33.105Z,39.70
2019-04-25T21:24:09.044Z,40.60
2019-04-25T21:28:45.005Z,40.30
2019-04-25T21:33:20.887Z,41.00
2019-04-25T21:37:57.524Z,40.90
2019-04-25T21:42:37.189Z,41.30
2019-04-25T21:47:13.454Z,41.20
2019-04-25T21:51:49.826Z,41.10
2019-04-25T21:56:25.657Z,41.40
2019-04-25T22:01:19.165Z,41.20
2019-04-25T22:05:55.798Z,41.20
2019-04-25T22:10:32.748Z,41.40
2019-04-25T22:15:11.646Z,41.90
2019-04-25T22:19:48.650Z,42.80
2019-04-25T22:24:24.819Z,43.70
2019-04-25T22:29:01.307Z,43.40
2019-04-25T22:33:44.805Z,44.40
2019-04-25T22:38:21.155Z,44.40
2019-04-25T22:42:56.989Z,44.60
2019-04-25T22:47:32.780Z,45.00
2019-04-25T22:52:09.139Z,45.70
2019-04-25T22:56:45.093Z,45.50
2019-04-25T23:01:39.154Z,46.20
2019-04-25T23:06:15.333Z,45.30
2019-04-25T23:10:51.097Z,45.90
2019-04-25T23:15:28.422Z,45.60
2019-04-25T23:20:05.747Z,45.20
2019-04-25T23:24:47.312Z,45.40
2019-04-25T23:29:23.085Z,44.80
2019-04-25T23:33:58.956Z,44.60
2019-04-25T23:38:34.718Z,44.90
2019-04-25T23:43:11.774Z,45.70
2019-04-25T23:47:47.833Z,46.30
2019-04-25T23:52:24.029Z,47.00
2019-04-25T23:56:59.793Z,47.40
